createdAt,value
2023-01-27T00:00:12.688Z,1.57
2023-01-27T00:01:12.269Z,1.52
2023-01-27T00:02:12.217Z,1.50
2023-01-27T00:03:12.132Z,1.54
2023-01-27T00:04:12.072Z,1.52
2023-01-27T00:05:12.039Z,1.42
2023-01-27T00:06:11.966Z,1.50
2023-01-27T00:07:11.840Z,1.52
2023-01-27T00:08:11.769Z,1.47
2023-01-27T00:09:11.699Z,1.52
2023-01-27T00:10:12.044Z,1.53
2023-01-27T00:11:11.571Z,1.50
2023-01-27T00:12:11.481Z,1.56
2023-01-27T00:13:11.436Z,1.44
2023-01-27T00:14:11.340Z,1.46
2023-01-27T00:15:11.277Z,1.53
2023-01-27T00:16:11.224Z,1.49
2023-01-27T00:17:11.135Z,1.46
2023-01-27T00:18:11.055Z,1.57
2023-01-27T00:19:11.056Z,1.56
2023-01-27T00:20:11.432Z,1.53
2023-01-27T00:21:10.853Z,1.54
2023-01-27T00:22:10.771Z,1.53
2023-01-27T00:23:10.711Z,1.53
2023-01-27T00:24:10.742Z,1.54
2023-01-27T00:25:10.564Z,1.56
2023-01-27T00:26:10.503Z,1.63
2023-01-27T00:27:10.420Z,1.52
2023-01-27T00:28:10.347Z,1.61
2023-01-27T00:29:10.282Z,1.52
2023-01-27T00:30:10.487Z,1.54
2023-01-27T00:31:10.173Z,1.54
2023-01-27T00:32:10.074Z,1.63
2023-01-27T00:33:09.999Z,1.53
2023-01-27T00:34:10.153Z,1.52
2023-01-27T00:35:09.848Z,1.53
2023-01-27T00:36:09.776Z,1.53
2023-01-27T00:37:09.710Z,1.60
2023-01-27T00:38:09.633Z,1.56
2023-01-27T00:39:09.618Z,1.47
2023-01-27T00:40:09.513Z,1.53
2023-01-27T00:41:09.455Z,1.49
2023-01-27T00:42:09.355Z,1.52
2023-01-27T00:43:09.286Z,1.60
2023-01-27T00:44:09.205Z,1.57
2023-01-27T00:45:09.134Z,1.61
2023-01-27T00:46:09.148Z,1.47
2023-01-27T00:47:08.997Z,1.53
2023-01-27T00:48:08.922Z,1.52
2023-01-27T00:49:08.857Z,1.47
2023-01-27T00:50:08.791Z,1.53
2023-01-27T00:51:08.717Z,1.56
2023-01-27T00:52:08.669Z,1.57
2023-01-27T00:53:08.569Z,1.50
2023-01-27T00:54:08.495Z,1.57
2023-01-27T00:55:08.424Z,1.56
2023-01-27T00:56:08.358Z,1.61
2023-01-27T00:57:08.314Z,1.57
2023-01-27T00:58:08.262Z,1.46
2023-01-27T00:59:08.140Z,1.50
2023-01-27T01:00:08.083Z,1.60
2023-01-27T01:01:08.005Z,1.56
2023-01-27T01:02:07.975Z,1.49
2023-01-27T01:03:07.938Z,1.50
2023-01-27T01:04:07.784Z,1.54
2023-01-27T01:05:07.715Z,1.57
2023-01-27T01:06:07.650Z,1.57
2023-01-27T01:07:07.685Z,1.54
2023-01-27T01:08:07.635Z,1.60
2023-01-27T01:09:07.429Z,1.56
2023-01-27T01:10:07.358Z,1.54
2023-01-27T01:11:07.302Z,1.49
2023-01-27T01:12:07.218Z,1.52
2023-01-27T01:13:07.144Z,1.57
2023-01-27T01:14:07.106Z,1.60
2023-01-27T01:15:07.004Z,1.54
2023-01-27T01:16:06.966Z,1.52
2023-01-27T01:17:06.858Z,1.54
2023-01-27T01:18:06.791Z,1.50
2023-01-27T01:19:06.715Z,1.52
2023-01-27T01:20:06.663Z,1.63
2023-01-27T01:21:06.599Z,1.56
2023-01-27T01:22:06.506Z,1.53
2023-01-27T01:23:06.433Z,1.61
2023-01-27T01:24:06.416Z,1.64
2023-01-27T01:25:06.303Z,1.61
2023-01-27T01:26:06.215Z,1.56
2023-01-27T01:27:06.196Z,1.52
2023-01-27T01:28:06.079Z,1.60
2023-01-27T01:29:06.015Z,1.56
2023-01-27T01:30:05.942Z,1.52
2023-01-27T01:31:05.961Z,1.52
2023-01-27T01:32:05.793Z,1.60
2023-01-27T01:33:05.734Z,1.53
2023-01-27T01:34:05.650Z,1.56
2023-01-27T01:35:05.582Z,1.53
2023-01-27T01:36:05.519Z,1.53
2023-01-27T01:37:05.439Z,1.54
2023-01-27T01:38:05.373Z,1.56
2023-01-27T01:39:05.314Z,1.53
2023-01-27T01:40:05.220Z,1.60
2023-01-27T01:41:05.169Z,1.54
2023-01-27T01:42:05.078Z,1.53
2023-01-27T01:43:05.014Z,1.54
2023-01-27T01:44:04.936Z,1.52
2023-01-27T01:45:04.866Z,1.56
2023-01-27T01:46:04.811Z,1.53
2023-01-27T01:47:04.730Z,1.52
2023-01-27T01:48:04.652Z,1.64
2023-01-27T01:49:04.587Z,1.64
2023-01-27T01:50:04.526Z,1.63
2023-01-27T01:51:04.436Z,1.53
2023-01-27T01:52:04.364Z,1.54
2023-01-27T01:53:04.298Z,1.56
2023-01-27T01:54:04.229Z,1.63
2023-01-27T01:55:04.164Z,1.63
2023-01-27T01:56:04.085Z,1.53
2023-01-27T01:57:04.015Z,1.60
2023-01-27T01:58:03.935Z,1.52
2023-01-27T01:59:03.867Z,1.61
2023-01-27T02:00:03.812Z,1.53
2023-01-27T02:01:03.744Z,1.56
2023-01-27T02:02:03.697Z,1.53
2023-01-27T02:03:03.590Z,1.53
2023-01-27T02:04:03.514Z,1.49
2023-01-27T02:05:03.451Z,1.50
2023-01-27T02:06:03.366Z,1.54
2023-01-27T02:07:03.300Z,1.54
2023-01-27T02:08:03.227Z,1.50
2023-01-27T02:09:03.157Z,1.49
2023-01-27T02:10:03.083Z,1.54
2023-01-27T02:11:03.037Z,1.65
2023-01-27T02:12:02.945Z,1.57
2023-01-27T02:13:02.870Z,1.53
2023-01-27T02:14:02.806Z,1.52
2023-01-27T02:15:02.728Z,1.53
2023-01-27T02:16:02.663Z,1.60
2023-01-27T02:17:02.591Z,1.47
2023-01-27T02:18:02.517Z,1.65
2023-01-27T02:19:02.448Z,1.54
2023-01-27T02:20:02.385Z,1.53
2023-01-27T02:21:02.339Z,1.61
2023-01-27T02:22:02.226Z,1.68
2023-01-27T02:23:02.154Z,1.54
2023-01-27T02:24:02.148Z,1.56
2023-01-27T02:25:02.013Z,1.49
2023-01-27T02:26:01.944Z,1.54
2023-01-27T02:27:01.875Z,1.56
2023-01-27T02:28:01.798Z,1.63
2023-01-27T02:29:01.727Z,1.61
2023-01-27T02:30:01.658Z,1.65
2023-01-27T02:31:01.740Z,1.68
2023-01-27T02:32:01.544Z,1.50
2023-01-27T02:33:01.463Z,1.57
2023-01-27T02:34:01.379Z,1.63
2023-01-27T02:35:01.311Z,1.64
2023-01-27T02:36:01.229Z,1.52
2023-01-27T02:37:01.160Z,1.56
2023-01-27T02:38:01.106Z,1.60
2023-01-27T02:39:01.019Z,1.61
2023-01-27T02:40:00.949Z,1.63
2023-01-27T02:41:00.883Z,1.70
2023-01-27T02:42:00.815Z,1.63
2023-01-27T02:43:00.735Z,1.67
2023-01-27T02:44:00.666Z,1.60
2023-01-27T02:45:00.592Z,1.60
2023-01-27T02:46:00.549Z,1.67
2023-01-27T02:47:00.445Z,1.60
2023-01-27T02:48:00.380Z,1.60
2023-01-27T02:49:00.306Z,1.63
2023-01-27T02:50:00.244Z,1.70
2023-01-27T02:51:00.164Z,1.65
2023-01-27T02:52:00.128Z,1.57
2023-01-27T02:53:00.024Z,1.61
2023-01-27T02:53:59.972Z,1.67
2023-01-27T02:54:59.933Z,1.61
2023-01-27T02:55:59.802Z,1.67
2023-01-27T02:56:59.732Z,1.63
2023-01-27T02:57:59.668Z,1.60
2023-01-27T02:58:59.605Z,1.64
2023-01-27T02:59:59.520Z,1.65
2023-01-27T03:00:59.447Z,1.64
2023-01-27T03:01:59.389Z,1.67
2023-01-27T03:02:59.320Z,1.60
2023-01-27T03:03:59.284Z,1.71
2023-01-27T03:04:59.187Z,1.67
2023-01-27T03:05:59.111Z,1.68
2023-01-27T03:06:59.020Z,1.70
2023-01-27T03:07:58.957Z,1.71
2023-01-27T03:08:58.903Z,1.79
2023-01-27T03:09:58.804Z,1.65
2023-01-27T03:10:58.754Z,1.65
2023-01-27T03:11:58.668Z,1.75
2023-01-27T03:12:58.597Z,1.71
2023-01-27T03:13:58.518Z,1.63
2023-01-27T03:14:58.476Z,1.60
2023-01-27T03:15:58.444Z,1.71
2023-01-27T03:16:58.314Z,1.71
2023-01-27T03:17:58.256Z,1.67
2023-01-27T03:18:58.189Z,1.77
2023-01-27T03:19:58.100Z,1.68
2023-01-27T03:20:58.025Z,1.83
2023-01-27T03:21:57.954Z,1.65
2023-01-27T03:22:57.880Z,1.77
2023-01-27T03:23:57.854Z,1.79
2023-01-27T03:24:57.749Z,1.77
2023-01-27T03:25:57.671Z,1.71
2023-01-27T03:26:57.604Z,1.57
2023-01-27T03:27:57.529Z,1.65
2023-01-27T03:28:57.454Z,1.72
2023-01-27T03:29:57.431Z,1.74
2023-01-27T03:30:57.433Z,1.79
2023-01-27T03:31:57.377Z,1.74
2023-01-27T03:32:58.505Z,1.75
2023-01-27T03:33:57.102Z,1.64
2023-01-27T03:34:57.030Z,1.74
2023-01-27T03:35:56.959Z,1.74
2023-01-27T03:36:56.889Z,1.72
2023-01-27T03:37:56.817Z,1.72
2023-01-27T03:38:56.745Z,1.86
2023-01-27T03:39:56.680Z,1.71
2023-01-27T03:40:56.617Z,1.68
2023-01-27T03:41:56.530Z,1.79
2023-01-27T03:42:56.460Z,1.77
2023-01-27T03:43:56.391Z,1.72
2023-01-27T03:44:56.346Z,1.82
2023-01-27T03:45:56.268Z,1.82
2023-01-27T03:46:56.179Z,1.82
2023-01-27T03:47:56.113Z,1.81
2023-01-27T03:48:56.041Z,1.79
2023-01-27T03:49:55.968Z,1.77
2023-01-27T03:50:55.914Z,1.79
2023-01-27T03:51:55.822Z,1.82
2023-01-27T03:52:55.753Z,1.82
2023-01-27T03:53:55.689Z,1.79
2023-01-27T03:54:55.605Z,1.72
2023-01-27T03:55:55.537Z,1.81
2023-01-27T03:56:55.474Z,1.82
2023-01-27T03:57:55.394Z,1.82
2023-01-27T03:58:55.322Z,1.81
2023-01-27T03:59:55.263Z,1.81
2023-01-27T04:00:55.192Z,1.81
2023-01-27T04:01:55.121Z,1.77
2023-01-27T04:02:55.147Z,1.83
2023-01-27T04:03:54.970Z,1.81
2023-01-27T04:04:54.899Z,1.85
2023-01-27T04:05:54.834Z,1.85
2023-01-27T04:06:54.762Z,1.77
2023-01-27T04:07:54.687Z,1.75
2023-01-27T04:08:54.630Z,1.83
2023-01-27T04:09:54.542Z,1.81
2023-01-27T04:10:54.475Z,1.79
2023-01-27T04:11:54.401Z,1.83
2023-01-27T04:12:54.340Z,1.79
2023-01-27T04:13:54.262Z,1.83
2023-01-27T04:14:54.190Z,1.81
2023-01-27T04:15:54.190Z,1.75
2023-01-27T04:16:54.044Z,1.81
2023-01-27T04:17:53.973Z,1.83
2023-01-27T04:18:53.910Z,1.79
2023-01-27T04:19:53.832Z,1.74
2023-01-27T04:20:53.760Z,1.85
2023-01-27T04:21:53.695Z,1.86
2023-01-27T04:22:53.632Z,1.81
2023-01-27T04:23:53.618Z,1.79
2023-01-27T04:24:53.482Z,1.85
2023-01-27T04:25:53.404Z,1.79
2023-01-27T04:26:53.337Z,1.82
2023-01-27T04:27:53.270Z,1.75
2023-01-27T04:28:53.202Z,1.74
2023-01-27T04:29:53.130Z,1.86
2023-01-27T04:30:53.076Z,1.79
2023-01-27T04:31:53.061Z,1.82
2023-01-27T04:32:52.911Z,1.79
2023-01-27T04:33:52.850Z,1.85
2023-01-27T04:34:52.790Z,1.82
2023-01-27T04:35:52.697Z,1.82
2023-01-27T04:36:52.636Z,1.85
2023-01-27T04:37:52.552Z,1.75
2023-01-27T04:38:52.484Z,1.81
2023-01-27T04:39:52.417Z,1.79
2023-01-27T04:40:52.340Z,1.86
2023-01-27T04:41:52.287Z,1.85
2023-01-27T04:42:52.197Z,1.88
2023-01-27T04:43:52.136Z,1.79
2023-01-27T04:44:52.065Z,1.83
2023-01-27T04:45:52.050Z,1.77
2023-01-27T04:46:51.915Z,1.82
2023-01-27T04:47:51.873Z,1.82
2023-01-27T04:48:51.768Z,1.79
2023-01-27T04:49:51.697Z,1.82
2023-01-27T04:50:51.637Z,1.83
2023-01-27T04:51:51.559Z,1.86
2023-01-27T04:52:51.486Z,1.83
2023-01-27T04:53:51.418Z,1.86
2023-01-27T04:54:51.344Z,1.85
2023-01-27T04:55:51.294Z,1.79
2023-01-27T04:56:51.201Z,1.83
2023-01-27T04:57:51.127Z,1.85
2023-01-27T04:58:51.057Z,1.88
2023-01-27T04:59:50.996Z,1.86
2023-01-27T05:00:50.922Z,1.86
2023-01-27T05:01:50.925Z,1.83
2023-01-27T05:02:50.795Z,1.85
2023-01-27T05:03:50.719Z,1.90
2023-01-27T05:04:50.629Z,1.98
2023-01-27T05:05:50.558Z,1.89
2023-01-27T05:06:50.490Z,1.86
2023-01-27T05:07:50.425Z,1.95
2023-01-27T05:08:50.344Z,1.92
2023-01-27T05:09:50.272Z,1.85
2023-01-27T05:10:50.216Z,1.85
2023-01-27T05:11:50.146Z,1.89
2023-01-27T05:12:50.070Z,1.89
2023-01-27T05:13:50.001Z,1.92
2023-01-27T05:14:49.926Z,1.92
2023-01-27T05:15:49.908Z,1.92
2023-01-27T05:16:49.821Z,1.90
2023-01-27T05:17:49.717Z,1.92
2023-01-27T05:18:49.629Z,1.83
2023-01-27T05:19:49.571Z,1.93
2023-01-27T05:20:51.477Z,1.89
2023-01-27T05:21:49.426Z,1.98
2023-01-27T05:22:49.368Z,2.01
2023-01-27T05:23:49.329Z,1.92
2023-01-27T05:24:49.206Z,1.89
2023-01-27T05:25:49.139Z,1.86
2023-01-27T05:26:49.067Z,1.89
2023-01-27T05:27:48.993Z,1.95
2023-01-27T05:28:48.922Z,1.92
2023-01-27T05:29:48.853Z,1.95
2023-01-27T05:30:48.896Z,2.00
2023-01-27T05:31:48.905Z,1.90
2023-01-27T05:32:48.645Z,2.02
2023-01-27T05:33:48.574Z,2.01
2023-01-27T05:34:48.499Z,2.05
2023-01-27T05:35:48.432Z,2.01
2023-01-27T05:36:48.362Z,2.02
2023-01-27T05:37:48.287Z,2.02
2023-01-27T05:38:48.220Z,2.02
2023-01-27T05:39:48.160Z,2.07
2023-01-27T05:40:48.073Z,2.05
2023-01-27T05:41:48.001Z,2.01
2023-01-27T05:42:47.942Z,2.02
2023-01-27T05:43:47.890Z,2.01
2023-01-27T05:44:49.652Z,2.01
2023-01-27T05:45:47.715Z,1.93
2023-01-27T05:46:47.705Z,2.01
2023-01-27T05:47:47.580Z,2.00
2023-01-27T05:48:47.503Z,2.05
2023-01-27T05:49:47.432Z,2.09
2023-01-27T05:50:47.363Z,2.05
2023-01-27T05:51:47.291Z,2.07
2023-01-27T05:52:47.216Z,2.09
2023-01-27T05:53:47.190Z,2.07
2023-01-27T05:54:47.078Z,2.05
2023-01-27T05:55:47.008Z,2.07
2023-01-27T05:56:46.937Z,1.93
2023-01-27T05:57:46.869Z,2.05
2023-01-27T05:58:46.793Z,2.00
2023-01-27T05:59:46.731Z,2.05
2023-01-27T06:00:46.648Z,2.00
2023-01-27T06:01:46.645Z,2.05
2023-01-27T06:02:46.559Z,2.01
2023-01-27T06:03:46.445Z,2.11
2023-01-27T06:04:46.370Z,2.07
2023-01-27T06:05:46.304Z,2.14
2023-01-27T06:06:46.221Z,2.07
2023-01-27T06:07:46.154Z,2.09
2023-01-27T06:08:46.079Z,2.11
2023-01-27T06:09:46.009Z,2.07
2023-01-27T06:10:45.946Z,2.11
2023-01-27T06:11:45.873Z,2.07
2023-01-27T06:12:45.797Z,2.08
2023-01-27T06:13:45.728Z,2.07
2023-01-27T06:14:45.656Z,2.15
2023-01-27T06:15:45.654Z,2.19
2023-01-27T06:16:45.556Z,2.07
2023-01-27T06:17:45.445Z,2.15
2023-01-27T06:18:45.369Z,2.12
2023-01-27T06:19:45.309Z,2.12
2023-01-27T06:20:45.228Z,2.11
2023-01-27T06:21:45.155Z,2.12
2023-01-27T06:22:45.084Z,2.11
2023-01-27T06:23:45.024Z,2.14
2023-01-27T06:24:44.963Z,2.14
2023-01-27T06:25:44.890Z,2.15
2023-01-27T06:26:44.819Z,2.12
2023-01-27T06:27:44.729Z,2.04
2023-01-27T06:28:44.687Z,2.15
2023-01-27T06:29:44.587Z,2.15
2023-01-27T06:30:44.566Z,2.22
2023-01-27T06:31:44.597Z,2.23
2023-01-27T06:32:44.373Z,2.18
2023-01-27T06:33:44.311Z,2.22
2023-01-27T06:34:44.234Z,2.22
2023-01-27T06:35:44.177Z,2.20
2023-01-27T06:36:44.090Z,2.30
2023-01-27T06:37:44.024Z,2.33
2023-01-27T06:38:43.958Z,2.32
2023-01-27T06:39:43.876Z,2.33
2023-01-27T06:40:43.806Z,2.36
2023-01-27T06:41:43.754Z,2.27
2023-01-27T06:42:43.668Z,2.33
2023-01-27T06:43:43.597Z,2.33
2023-01-27T06:44:43.525Z,2.30
2023-01-27T06:45:43.460Z,2.37
2023-01-27T06:46:43.428Z,2.36
2023-01-27T06:47:43.313Z,2.36
2023-01-27T06:48:43.302Z,2.37
2023-01-27T06:49:43.177Z,2.36
2023-01-27T06:50:43.103Z,2.38
2023-01-27T06:51:43.031Z,2.37
2023-01-27T06:52:42.956Z,2.33
2023-01-27T06:53:42.947Z,2.47
2023-01-27T06:54:42.811Z,2.51
2023-01-27T06:55:42.742Z,2.45
2023-01-27T06:56:42.679Z,2.56
2023-01-27T06:57:42.600Z,2.44
2023-01-27T06:58:42.539Z,2.55
2023-01-27T06:59:42.474Z,2.51
2023-01-27T07:00:42.393Z,2.48
2023-01-27T07:01:42.356Z,2.51
2023-01-27T07:02:42.313Z,2.59
2023-01-27T07:03:44.583Z,2.56
2023-01-27T07:04:42.104Z,2.56
2023-01-27T07:05:42.048Z,2.61
2023-01-27T07:06:41.961Z,2.58
2023-01-27T07:07:41.885Z,2.56
2023-01-27T07:08:41.811Z,2.48
2023-01-27T07:09:52.044Z,2.59
2023-01-27T07:10:41.672Z,2.53
2023-01-27T07:11:41.606Z,2.58
2023-01-27T07:12:41.539Z,2.63
2023-01-27T07:13:41.484Z,2.59
2023-01-27T07:14:41.392Z,2.53
2023-01-27T07:15:41.322Z,2.62
2023-01-27T07:16:41.249Z,2.51
2023-01-27T07:17:41.179Z,2.56
2023-01-27T07:18:41.109Z,2.55
2023-01-27T07:19:41.032Z,2.59
2023-01-27T07:20:40.972Z,2.62
2023-01-27T07:21:40.886Z,2.56
2023-01-27T07:22:40.821Z,2.58
2023-01-27T07:23:40.768Z,2.62
2023-01-27T07:24:40.677Z,2.63
2023-01-27T07:25:40.604Z,2.58
2023-01-27T07:26:40.539Z,2.63
2023-01-27T07:27:40.467Z,2.63
2023-01-27T07:28:40.395Z,2.66
2023-01-27T07:29:40.319Z,2.71
2023-01-27T07:30:40.288Z,2.73
2023-01-27T07:31:40.264Z,2.80
2023-01-27T07:32:40.109Z,2.77
2023-01-27T07:33:40.035Z,2.87
2023-01-27T07:34:39.962Z,2.87
2023-01-27T07:35:39.896Z,2.81
2023-01-27T07:36:39.855Z,2.87
2023-01-27T07:37:39.760Z,2.90
2023-01-27T07:38:39.689Z,2.90
2023-01-27T07:39:39.614Z,2.86
2023-01-27T07:40:39.571Z,2.89
2023-01-27T07:41:39.472Z,2.83
2023-01-27T07:42:39.404Z,2.84
2023-01-27T07:43:39.364Z,2.83
2023-01-27T07:44:39.259Z,2.89
2023-01-27T07:45:39.234Z,2.83
2023-01-27T07:46:39.113Z,2.86
2023-01-27T07:47:39.050Z,2.89
2023-01-27T07:48:38.973Z,2.87
2023-01-27T07:49:38.906Z,2.90
2023-01-27T07:50:38.836Z,3.02
2023-01-27T07:51:38.766Z,2.98
2023-01-27T07:52:38.684Z,2.97
2023-01-27T07:53:38.616Z,2.97
2023-01-27T07:54:38.546Z,2.90
2023-01-27T07:55:38.488Z,2.97
2023-01-27T07:56:38.402Z,2.98
2023-01-27T07:57:38.330Z,3.01
2023-01-27T07:58:38.261Z,2.97
2023-01-27T07:59:38.205Z,2.99
2023-01-27T08:00:38.186Z,3.02
2023-01-27T08:01:38.048Z,3.02
2023-01-27T08:02:37.986Z,3.04
2023-01-27T08:03:37.951Z,3.08
2023-01-27T08:04:52.136Z,3.12
2023-01-27T08:05:37.763Z,3.10
2023-01-27T08:06:37.704Z,3.17
2023-01-27T08:07:37.642Z,3.19
2023-01-27T08:08:38.206Z,3.25
2023-01-27T08:09:37.481Z,3.19
2023-01-27T08:10:37.406Z,3.25
2023-01-27T08:11:37.337Z,3.25
2023-01-27T08:12:37.273Z,3.25
2023-01-27T08:13:37.271Z,3.30
2023-01-27T08:14:37.123Z,3.31
2023-01-27T08:15:37.061Z,3.35
2023-01-27T08:16:37.018Z,3.28
2023-01-27T08:17:36.912Z,3.33
2023-01-27T08:18:36.842Z,3.45
2023-01-27T08:19:36.793Z,3.46
2023-01-27T08:20:36.695Z,3.45
2023-01-27T08:21:36.628Z,3.49
2023-01-27T08:22:36.564Z,3.44
2023-01-27T08:23:36.510Z,3.42
2023-01-27T08:24:36.420Z,3.45
2023-01-27T08:25:36.343Z,3.50
2023-01-27T08:26:36.271Z,3.44
2023-01-27T08:27:36.205Z,3.53
2023-01-27T08:28:36.209Z,3.56
2023-01-27T08:29:36.061Z,3.50
2023-01-27T08:30:36.045Z,3.49
2023-01-27T08:31:35.954Z,3.53
2023-01-27T08:32:35.853Z,3.52
2023-01-27T08:33:35.784Z,3.62
2023-01-27T08:34:35.728Z,3.57
2023-01-27T08:35:35.650Z,3.62
2023-01-27T08:36:35.567Z,3.60
2023-01-27T08:37:35.497Z,3.60
2023-01-27T08:38:35.436Z,3.62
2023-01-27T08:39:35.378Z,3.67
2023-01-27T08:40:35.282Z,3.70
2023-01-27T08:41:35.221Z,3.72
2023-01-27T08:42:35.177Z,3.70
2023-01-27T08:43:35.100Z,3.78
2023-01-27T08:44:35.033Z,3.78
2023-01-27T08:45:34.960Z,3.77
2023-01-27T08:46:34.864Z,3.71
2023-01-27T08:47:34.798Z,3.89
2023-01-27T08:48:34.731Z,3.72
2023-01-27T08:49:34.665Z,3.86
2023-01-27T08:50:34.580Z,3.81
2023-01-27T08:51:34.507Z,3.78
2023-01-27T08:52:34.443Z,3.84
2023-01-27T08:53:34.369Z,3.88
2023-01-27T08:54:34.297Z,3.86
2023-01-27T08:55:34.267Z,3.84
2023-01-27T08:56:34.153Z,3.89
2023-01-27T08:57:36.612Z,3.95
2023-01-27T08:58:34.024Z,3.88
2023-01-27T08:59:33.947Z,3.88
2023-01-27T09:00:33.881Z,3.82
2023-01-27T09:01:33.880Z,3.96
2023-01-27T09:02:33.738Z,3.89
2023-01-27T09:03:33.663Z,3.92
2023-01-27T09:04:33.634Z,3.95
2023-01-27T09:05:33.524Z,3.92
2023-01-27T09:06:33.462Z,3.92
2023-01-27T09:07:33.406Z,3.95
2023-01-27T09:08:33.311Z,4.02
2023-01-27T09:09:33.247Z,4.02
2023-01-27T09:10:33.169Z,4.07
2023-01-27T09:11:33.115Z,4.10
2023-01-27T09:12:33.028Z,4.08
2023-01-27T09:13:32.962Z,4.00
2023-01-27T09:14:32.888Z,4.08
2023-01-27T09:15:32.823Z,4.08
2023-01-27T09:16:32.826Z,4.07
2023-01-27T09:17:32.676Z,4.02
2023-01-27T09:18:32.637Z,4.04
2023-01-27T09:19:32.547Z,4.08
2023-01-27T09:20:32.470Z,4.11
2023-01-27T09:21:32.412Z,4.16
2023-01-27T09:22:32.342Z,4.10
2023-01-27T09:23:32.266Z,4.08
2023-01-27T09:24:32.198Z,4.08
2023-01-27T09:25:32.135Z,4.10
2023-01-27T09:26:32.045Z,4.07
2023-01-27T09:27:39.279Z,4.07
2023-01-27T09:28:31.915Z,4.10
2023-01-27T09:29:31.838Z,4.16
2023-01-27T09:30:31.764Z,4.14
2023-01-27T09:31:31.866Z,4.17
2023-01-27T09:32:31.633Z,4.18
2023-01-27T09:33:31.555Z,4.18
2023-01-27T09:34:31.480Z,4.18
2023-01-27T09:35:31.413Z,4.21
2023-01-27T09:36:31.341Z,4.16
2023-01-27T09:37:31.274Z,4.24
2023-01-27T09:38:31.210Z,4.20
2023-01-27T09:39:31.146Z,4.17
2023-01-27T09:40:31.062Z,4.18
2023-01-27T09:41:31.001Z,4.26
2023-01-27T09:42:30.921Z,4.20
2023-01-27T09:43:30.852Z,4.25
2023-01-27T09:44:30.779Z,4.20
2023-01-27T09:45:30.711Z,4.29
2023-01-27T09:46:30.699Z,4.20
2023-01-27T09:47:30.646Z,4.17
2023-01-27T09:48:30.497Z,4.21
2023-01-27T09:49:30.434Z,4.34
2023-01-27T09:50:30.356Z,4.34
2023-01-27T09:51:30.294Z,4.32
2023-01-27T09:52:45.513Z,4.36
2023-01-27T09:53:30.164Z,4.28
2023-01-27T09:54:30.090Z,4.28
2023-01-27T09:55:30.022Z,4.34
2023-01-27T09:56:29.937Z,4.31
2023-01-27T09:57:29.908Z,4.26
2023-01-27T09:58:29.795Z,4.25
2023-01-27T09:59:29.735Z,4.32
2023-01-27T10:00:29.658Z,4.35
2023-01-27T10:01:29.641Z,4.36
2023-01-27T10:02:29.520Z,4.34
2023-01-27T10:03:29.454Z,4.34
2023-01-27T10:04:29.426Z,4.35
2023-01-27T10:05:29.309Z,4.36
2023-01-27T10:06:29.238Z,4.32
2023-01-27T10:07:29.169Z,4.32
2023-01-27T10:08:29.095Z,4.35
2023-01-27T10:09:29.027Z,4.34
2023-01-27T10:10:28.968Z,4.29
2023-01-27T10:11:28.892Z,4.46
2023-01-27T10:12:28.820Z,4.35
2023-01-27T10:13:28.751Z,4.34
2023-01-27T10:14:28.686Z,4.29
2023-01-27T10:15:28.611Z,4.46
2023-01-27T10:16:28.579Z,4.46
2023-01-27T10:17:28.512Z,4.44
2023-01-27T10:18:28.396Z,4.31
2023-01-27T10:19:28.333Z,4.53
2023-01-27T10:20:28.259Z,4.43
2023-01-27T10:21:28.192Z,4.43
2023-01-27T10:22:28.124Z,4.51
2023-01-27T10:23:28.054Z,4.46
2023-01-27T10:24:28.043Z,4.43
2023-01-27T10:25:27.911Z,4.49
2023-01-27T10:26:27.884Z,4.47
2023-01-27T10:27:27.769Z,4.49
2023-01-27T10:28:27.693Z,4.49
2023-01-27T10:29:27.650Z,4.44
2023-01-27T10:30:27.571Z,4.47
2023-01-27T10:31:27.544Z,4.47
2023-01-27T10:32:27.416Z,4.50
2023-01-27T10:33:28.615Z,4.54
2023-01-27T10:34:27.280Z,4.53
2023-01-27T10:35:27.204Z,4.44
2023-01-27T10:36:27.133Z,4.39
2023-01-27T10:37:27.071Z,4.54
2023-01-27T10:38:27.002Z,4.50
2023-01-27T10:39:26.925Z,4.50
2023-01-27T10:40:26.862Z,4.51
2023-01-27T10:41:26.787Z,4.50
2023-01-27T10:42:26.748Z,4.53
2023-01-27T10:43:26.651Z,4.53
2023-01-27T10:44:26.584Z,4.46
2023-01-27T10:45:26.575Z,4.47
2023-01-27T10:46:26.479Z,4.47
2023-01-27T10:47:26.364Z,4.50
2023-01-27T10:48:26.301Z,4.50
2023-01-27T10:49:26.225Z,4.50
2023-01-27T10:50:26.170Z,4.51
2023-01-27T10:51:26.083Z,4.44
2023-01-27T10:52:26.117Z,4.47
2023-01-27T10:53:25.954Z,4.51
2023-01-27T10:54:25.883Z,4.53
2023-01-27T10:55:25.816Z,4.51
2023-01-27T10:56:25.738Z,4.49
2023-01-27T10:57:25.676Z,4.50
2023-01-27T10:58:25.613Z,4.51
2023-01-27T10:59:25.563Z,4.51
2023-01-27T11:00:57.523Z,4.54
2023-01-27T11:01:26.208Z,4.53
2023-01-27T11:02:25.403Z,4.57
2023-01-27T11:03:25.262Z,4.61
2023-01-27T11:04:25.257Z,4.51
2023-01-27T11:05:25.117Z,4.67
2023-01-27T11:06:25.177Z,4.57
2023-01-27T11:07:24.964Z,4.64
2023-01-27T11:08:24.896Z,4.64
2023-01-27T11:09:24.832Z,4.67
2023-01-27T11:10:24.757Z,4.56
2023-01-27T11:11:24.688Z,4.56
2023-01-27T11:12:24.617Z,4.57
2023-01-27T11:13:24.544Z,4.64
2023-01-27T11:14:24.485Z,4.61
2023-01-27T11:15:24.423Z,4.64
2023-01-27T11:16:24.371Z,4.64
2023-01-27T11:17:24.284Z,4.59
2023-01-27T11:18:24.194Z,4.67
2023-01-27T11:19:24.127Z,4.64
2023-01-27T11:20:24.056Z,4.67
2023-01-27T11:21:23.990Z,4.59
2023-01-27T11:22:23.918Z,4.68
2023-01-27T11:23:23.847Z,4.65
2023-01-27T11:24:23.853Z,4.59
2023-01-27T11:25:23.717Z,4.65
2023-01-27T11:26:23.965Z,4.72
2023-01-27T11:27:23.585Z,4.77
2023-01-27T11:28:23.510Z,4.79
2023-01-27T11:29:23.428Z,4.69
2023-01-27T11:30:23.484Z,4.67
2023-01-27T11:31:23.478Z,4.75
2023-01-27T11:32:23.235Z,4.72
2023-01-27T11:33:23.158Z,4.75
2023-01-27T11:34:23.080Z,4.79
2023-01-27T11:35:23.010Z,4.84
2023-01-27T11:36:22.951Z,4.75
2023-01-27T11:37:22.921Z,4.80
2023-01-27T11:38:22.800Z,4.80
2023-01-27T11:39:22.754Z,4.84
2023-01-27T11:40:22.676Z,4.79
2023-01-27T11:41:22.595Z,4.69
2023-01-27T11:42:22.545Z,4.68
2023-01-27T11:43:22.463Z,4.71
2023-01-27T11:44:22.384Z,4.68
2023-01-27T11:45:22.310Z,4.68
2023-01-27T11:46:22.247Z,4.67
2023-01-27T11:47:22.180Z,4.77
2023-01-27T11:48:23.559Z,4.67
2023-01-27T11:49:22.032Z,4.72
2023-01-27T11:50:21.966Z,4.74
2023-01-27T11:51:21.901Z,4.80
2023-01-27T11:52:21.824Z,4.84
2023-01-27T11:53:21.754Z,4.84
2023-01-27T11:54:21.682Z,4.72
2023-01-27T11:55:21.623Z,4.69
2023-01-27T11:56:21.545Z,4.67
2023-01-27T11:57:21.483Z,4.67
2023-01-27T11:58:21.417Z,4.69
2023-01-27T11:59:21.349Z,4.84
2023-01-27T12:00:21.275Z,4.77
2023-01-27T12:01:21.197Z,4.83
2023-01-27T12:02:21.139Z,4.69
2023-01-27T12:03:21.059Z,4.71
2023-01-27T12:04:21.038Z,4.71
2023-01-27T12:05:21.165Z,4.59
2023-01-27T12:06:20.853Z,4.59
2023-01-27T12:07:20.794Z,4.61
2023-01-27T12:08:20.709Z,4.68
2023-01-27T12:09:20.637Z,4.69
2023-01-27T12:10:20.877Z,4.71
2023-01-27T12:11:20.512Z,4.65
2023-01-27T12:12:20.434Z,4.72
2023-01-27T12:13:20.391Z,4.67
2023-01-27T12:14:20.300Z,4.61
2023-01-27T12:15:20.258Z,4.65
2023-01-27T12:16:20.379Z,4.62
2023-01-27T12:17:20.092Z,4.62
2023-01-27T12:18:20.041Z,4.68
2023-01-27T12:19:19.951Z,4.67
2023-01-27T12:20:19.877Z,4.64
2023-01-27T12:21:19.811Z,4.62
2023-01-27T12:22:19.735Z,4.67
2023-01-27T12:23:19.670Z,4.57
2023-01-27T12:24:19.668Z,4.59
2023-01-27T12:25:19.522Z,4.62
2023-01-27T12:26:19.455Z,4.62
2023-01-27T12:27:19.384Z,4.65
2023-01-27T12:28:19.327Z,4.67
2023-01-27T12:29:19.245Z,4.59
2023-01-27T12:30:19.180Z,4.57
2023-01-27T12:31:19.202Z,4.57
2023-01-27T12:32:19.051Z,4.54
2023-01-27T12:33:18.974Z,4.67
2023-01-27T12:34:18.902Z,4.56
2023-01-27T12:35:18.831Z,4.61
2023-01-27T12:36:18.772Z,4.59
2023-01-27T12:37:18.688Z,4.56
2023-01-27T12:38:18.623Z,4.57
2023-01-27T12:39:18.550Z,4.57
2023-01-27T12:40:18.484Z,4.57
2023-01-27T12:41:18.437Z,4.53
2023-01-27T12:42:18.346Z,4.59
2023-01-27T12:43:18.269Z,4.51
2023-01-27T12:44:18.208Z,4.50
2023-01-27T12:45:18.132Z,4.50
2023-01-27T12:46:18.103Z,4.46
2023-01-27T12:47:18.005Z,4.59
2023-01-27T12:48:17.936Z,4.56
2023-01-27T12:49:17.849Z,4.49
2023-01-27T12:50:17.804Z,4.54
2023-01-27T12:51:17.718Z,4.56
2023-01-27T12:52:17.641Z,4.49
2023-01-27T12:53:17.576Z,4.57
2023-01-27T12:54:17.521Z,4.61
2023-01-27T12:55:17.437Z,4.56
2023-01-27T12:56:17.373Z,4.47
2023-01-27T12:57:17.296Z,4.57
2023-01-27T12:58:17.227Z,4.49
2023-01-27T12:59:17.186Z,4.47
2023-01-27T13:00:17.200Z,4.50
2023-01-27T13:01:17.033Z,4.50
2023-01-27T13:02:16.984Z,4.46
2023-01-27T13:03:16.883Z,4.50
2023-01-27T13:04:16.805Z,4.54
2023-01-27T13:05:16.731Z,4.54
2023-01-27T13:06:16.673Z,4.49
2023-01-27T13:07:16.598Z,4.50
2023-01-27T13:08:16.524Z,4.47
2023-01-27T13:09:16.458Z,4.56
2023-01-27T13:10:16.628Z,4.47
2023-01-27T13:11:16.346Z,4.56
2023-01-27T13:12:16.248Z,4.54
2023-01-27T13:13:16.171Z,4.46
2023-01-27T13:14:16.117Z,4.51
2023-01-27T13:15:16.042Z,4.44
2023-01-27T13:16:16.017Z,4.38
2023-01-27T13:17:15.908Z,4.42